createdAt,value
2018-12-21T00:01:24.317Z,97425.46
2018-12-21T00:03:53.615Z,97426.73
2018-12-21T00:06:23.302Z,97426.31
2018-12-21T00:08:52.578Z,97420.75
2018-12-21T00:11:21.886Z,97416.45
2018-12-21T00:13:51.160Z,97424.58
2018-12-21T00:16:20.537Z,97419.80
2018-12-21T00:18:49.810Z,97413.77
2018-12-21T00:21:21.943Z,97411.17
2018-12-21T00:23:50.440Z,97407.88
2018-12-21T00:26:20.826Z,97396.28
2018-12-21T00:28:50.141Z,97390.39
2018-12-21T00:31:24.681Z,97399.76
2018-12-21T00:33:59.128Z,97403.23
2018-12-21T00:36:33.594Z,97417.86
2018-12-21T00:39:08.074Z,97415.20
2018-12-21T00:41:37.031Z,97420.22
2018-12-21T00:44:11.483Z,97420.91
2018-12-21T00:46:46.694Z,97411.32
2018-12-21T00:49:15.976Z,97415.02
2018-12-21T00:51:45.374Z,97414.09
2018-12-21T00:54:14.942Z,97408.48
2018-12-21T00:56:44.298Z,97400.59
2018-12-21T00:59:13.673Z,97393.57
2018-12-21T01:01:43.036Z,97390.78
2018-12-21T01:04:12.334Z,97383.90
2018-12-21T01:06:41.966Z,97390.21
2018-12-21T01:09:11.490Z,97398.78
2018-12-21T01:11:40.855Z,97403.48
2018-12-21T01:14:10.154Z,97410.77
2018-12-21T01:16:39.562Z,97404.61
2018-12-21T01:19:08.927Z,97403.63
2018-12-21T01:21:38.916Z,97407.05
2018-12-21T01:24:08.586Z,97403.67
2018-12-21T01:26:37.962Z,97412.53
2018-12-21T01:29:07.227Z,97405.39
2018-12-21T01:31:37.111Z,97401.57
2018-12-21T01:34:06.543Z,97389.24
2018-12-21T01:36:35.842Z,97388.70
2018-12-21T01:39:07.332Z,97387.08
2018-12-21T01:41:36.823Z,97397.11
2018-12-21T01:44:06.194Z,97397.16
2018-12-21T01:46:35.492Z,97405.34
2018-12-21T01:49:05.043Z,97402.92
2018-12-21T01:51:34.299Z,97398.62
2018-12-21T01:54:03.661Z,97399.05
2018-12-21T01:56:32.943Z,97397.30
2018-12-21T01:59:02.390Z,97382.69
2018-12-21T02:01:31.675Z,97378.78
2018-12-21T02:04:00.969Z,97376.05
2018-12-21T02:06:30.249Z,97382.81
2018-12-21T02:08:59.570Z,97376.39
2018-12-21T02:11:28.844Z,97380.42
2018-12-21T02:13:58.128Z,97371.22
2018-12-21T02:16:29.004Z,97371.62
2018-12-21T02:18:58.344Z,97372.70
2018-12-21T02:21:27.626Z,97381.07
2018-12-21T02:23:57.049Z,97377.20
2018-12-21T02:26:26.454Z,97378.58
2018-12-21T02:28:55.991Z,97385.56
2018-12-21T02:31:25.505Z,97386.84
2018-12-21T02:33:54.818Z,97381.75
2018-12-21T02:36:24.078Z,97375.77
2018-12-21T02:38:53.391Z,97375.62
2018-12-21T02:41:22.656Z,97376.41
2018-12-21T02:43:52.506Z,97380.71
2018-12-21T02:46:21.870Z,97373.86
2018-12-21T02:48:51.626Z,97375.48
2018-12-21T02:51:20.951Z,97367.06
2018-12-21T02:53:50.337Z,97368.34
2018-12-21T02:56:19.712Z,97369.13
2018-12-21T02:58:49.011Z,97361.00
2018-12-21T03:01:18.352Z,97370.30
2018-12-21T03:03:47.622Z,97365.55
2018-12-21T03:06:17.281Z,97360.20
2018-12-21T03:08:46.553Z,97365.77
2018-12-21T03:11:15.875Z,97360.33
2018-12-21T03:13:45.165Z,97355.47
2018-12-21T03:16:14.397Z,97345.95
2018-12-21T03:18:43.685Z,97337.27
2018-12-21T03:21:13.791Z,97331.53
2018-12-21T03:23:43.878Z,97319.27
2018-12-21T03:26:13.130Z,97304.92
2018-12-21T03:28:43.066Z,97307.46
2018-12-21T03:31:12.509Z,97312.55
2018-12-21T03:33:41.866Z,97310.56
2018-12-21T03:36:11.123Z,97320.30
2018-12-21T03:38:40.484Z,97321.78
2018-12-21T03:41:09.765Z,97313.50
2018-12-21T03:43:39.077Z,97311.67
2018-12-21T03:46:08.317Z,97305.02
2018-12-21T03:48:37.584Z,97308.70
2018-12-21T03:51:06.861Z,97300.34
2018-12-21T03:53:36.124Z,97296.00
2018-12-21T03:56:05.519Z,97307.11
2018-12-21T03:58:34.902Z,97297.41
2018-12-21T04:01:04.393Z,97301.80
2018-12-21T04:03:33.748Z,97290.94
2018-12-21T04:06:03.019Z,97279.27
2018-12-21T04:08:32.316Z,97286.64
2018-12-21T04:11:02.100Z,97268.16
2018-12-21T04:13:31.969Z,97269.98
2018-12-21T04:16:00.446Z,97258.90
2018-12-21T04:18:29.702Z,97251.79
2018-12-21T04:20:58.960Z,97256.14
2018-12-21T04:23:28.270Z,97239.19
2018-12-21T04:25:57.565Z,97242.71
2018-12-21T04:28:26.858Z,97238.55
2018-12-21T04:30:56.107Z,97237.45
2018-12-21T04:33:25.406Z,97238.90
2018-12-21T04:35:54.658Z,97237.80
2018-12-21T04:38:23.956Z,97238.91
2018-12-21T04:40:53.310Z,97236.84
2018-12-21T04:43:22.591Z,97231.34
2018-12-21T04:45:50.935Z,97235.34
2018-12-21T04:48:20.321Z,97238.11
2018-12-21T04:50:49.599Z,97229.41
2018-12-21T04:53:18.842Z,97229.06
2018-12-21T04:55:48.108Z,97229.06
2018-12-21T04:58:17.537Z,97226.64
2018-12-21T05:00:46.794Z,97229.66
2018-12-21T05:03:16.063Z,97227.95
2018-12-21T05:05:45.437Z,97222.94
2018-12-21T05:10:43.287Z,97220.48
2018-12-21T05:13:12.628Z,97225.71
2018-12-21T05:15:41.942Z,97211.92
2018-12-21T05:18:11.291Z,97216.27
2018-12-21T05:20:40.767Z,97206.83
2018-12-21T05:23:10.047Z,97203.53
2018-12-21T05:25:39.628Z,97185.65
2018-12-21T05:28:08.911Z,97164.84
2018-12-21T05:30:38.172Z,97171.12
2018-12-21T05:33:07.688Z,97164.51
2018-12-21T05:35:36.957Z,97165.42
2018-12-21T05:38:06.251Z,97154.27
2018-12-21T05:40:35.538Z,97158.80
2018-12-21T05:43:05.107Z,97172.66
2018-12-21T05:45:34.548Z,97169.44
2018-12-21T05:48:03.818Z,97175.89
2018-12-21T05:50:33.117Z,97171.52
2018-12-21T05:53:02.366Z,97175.34
2018-12-21T05:55:31.635Z,97176.85
2018-12-21T05:58:00.890Z,97157.89
2018-12-21T06:00:30.150Z,97153.39
2018-12-21T06:02:59.478Z,97146.82
2018-12-21T06:05:28.732Z,97149.85
2018-12-21T06:07:58.179Z,97146.23
2018-12-21T06:10:27.539Z,97144.35
2018-12-21T06:12:56.828Z,97142.44
2018-12-21T06:15:26.141Z,97139.73
2018-12-21T06:17:55.400Z,97133.00
2018-12-21T06:20:24.838Z,97134.84
2018-12-21T06:22:54.161Z,97139.94
2018-12-21T06:25:23.645Z,97139.02
2018-12-21T06:27:53.030Z,97142.13
2018-12-21T06:30:22.468Z,97143.41
2018-12-21T06:32:52.009Z,97138.78
2018-12-21T06:35:21.358Z,97146.91
2018-12-21T06:37:50.739Z,97140.85
2018-12-21T06:40:19.999Z,97139.09
2018-12-21T06:42:50.761Z,97131.61
2018-12-21T06:45:20.341Z,97119.26
2018-12-21T06:47:49.622Z,97109.59
2018-12-21T06:50:18.915Z,97111.22
2018-12-21T06:52:48.221Z,97105.90
2018-12-21T06:55:17.489Z,97113.16
2018-12-21T06:57:47.658Z,97107.17
2018-12-21T07:00:17.137Z,97104.66
2018-12-21T07:02:46.496Z,97099.08
2018-12-21T07:05:16.822Z,97100.36
2018-12-21T07:07:46.086Z,97092.64
2018-12-21T07:10:15.420Z,97092.95
2018-12-21T07:12:46.786Z,97087.63
2018-12-21T07:15:16.070Z,97092.14
2018-12-21T07:17:48.789Z,97087.33
2018-12-21T07:20:18.035Z,97084.63
2018-12-21T07:22:47.369Z,97084.39
2018-12-21T07:25:16.664Z,97087.78
2018-12-21T07:27:46.051Z,97078.46
2018-12-21T07:30:15.597Z,97073.59
2018-12-21T07:32:45.733Z,97074.03
2018-12-21T07:35:17.562Z,97066.23
2018-12-21T07:37:46.868Z,97067.39
2018-12-21T07:43:19.195Z,97066.44
2018-12-21T07:45:48.470Z,97058.90
2018-12-21T07:48:17.718Z,97062.80
2018-12-21T07:50:47.020Z,97053.52
2018-12-21T07:53:16.274Z,97054.61
2018-12-21T07:55:45.521Z,97050.61
2018-12-21T07:58:14.973Z,97049.13
2018-12-21T08:00:44.386Z,97045.47
2018-12-21T08:03:13.868Z,97048.13
2018-12-21T08:05:43.242Z,97049.36
2018-12-21T08:08:12.554Z,97044.23
2018-12-21T08:10:42.772Z,97040.55
2018-12-21T08:13:12.146Z,97041.48
2018-12-21T08:15:41.480Z,97034.14
2018-12-21T08:18:10.762Z,97039.98
2018-12-21T08:20:40.080Z,97034.63
2018-12-21T08:23:09.446Z,97029.55
2018-12-21T08:25:38.794Z,97032.34
2018-12-21T08:28:08.174Z,97031.23
2018-12-21T08:30:37.496Z,97023.34
2018-12-21T08:33:06.789Z,97030.42
2018-12-21T08:35:36.519Z,97033.98
2018-12-21T08:38:05.807Z,97024.66
2018-12-21T08:40:35.207Z,97024.38
2018-12-21T08:43:04.500Z,97025.50
2018-12-21T08:45:33.749Z,97015.30
2018-12-21T08:48:03.062Z,97012.70
2018-12-21T08:50:32.416Z,97006.42
2018-12-21T08:53:01.695Z,97001.86
2018-12-21T08:55:30.939Z,96998.89
2018-12-21T08:58:00.339Z,96993.52
2018-12-21T09:00:30.429Z,96989.91
2018-12-21T09:02:59.699Z,96986.28
2018-12-21T09:05:29.046Z,96982.17
2018-12-21T09:07:58.554Z,96979.94
2018-12-21T09:10:27.808Z,96980.20
2018-12-21T09:12:57.183Z,96979.07
2018-12-21T09:15:26.547Z,96977.89
2018-12-21T09:17:55.905Z,96975.32
2018-12-21T09:20:25.159Z,96992.40
2018-12-21T09:22:54.427Z,96994.66
2018-12-21T09:25:23.703Z,96996.22
2018-12-21T09:27:53.002Z,97007.52
2018-12-21T09:30:22.275Z,97019.14
2018-12-21T09:32:51.673Z,97007.82
2018-12-21T09:35:21.050Z,97012.31
2018-12-21T09:37:50.428Z,97005.28
2018-12-21T09:40:19.766Z,96999.13
2018-12-21T09:42:49.031Z,96989.97
2018-12-21T09:45:18.400Z,96969.84
2018-12-21T09:47:47.747Z,96949.44
2018-12-21T09:50:17.022Z,96976.28
2018-12-21T09:52:47.165Z,96970.78
2018-12-21T09:55:16.513Z,96958.77
2018-12-21T09:57:45.780Z,96949.60
2018-12-21T10:00:15.133Z,96944.23
2018-12-21T10:02:44.435Z,96923.01
2018-12-21T10:05:16.603Z,96927.23
2018-12-21T10:07:46.842Z,96927.20
2018-12-21T10:10:16.377Z,96926.30
2018-12-21T10:12:46.042Z,96913.16
2018-12-21T10:15:16.360Z,96915.72
2018-12-21T10:20:43.630Z,96919.17
2018-12-21T10:23:13.246Z,96918.77
2018-12-21T10:25:43.602Z,96917.08
2018-12-21T10:28:13.083Z,96908.42
2018-12-21T10:30:43.355Z,96898.66
2018-12-21T10:33:12.822Z,96897.00
2018-12-21T10:35:42.111Z,96884.72
2018-12-21T10:38:12.385Z,96884.72
2018-12-21T10:40:41.638Z,96879.09
2018-12-21T10:43:10.894Z,96877.38
2018-12-21T10:45:41.692Z,96869.45
2018-12-21T10:48:11.375Z,96860.80
2018-12-21T10:50:40.923Z,96852.56
2018-12-21T10:53:10.271Z,96853.84
2018-12-21T10:55:39.570Z,96844.07
2018-12-21T10:58:08.920Z,96835.61
2018-12-21T11:00:38.261Z,96825.88
2018-12-21T11:03:07.616Z,96815.57
2018-12-21T11:05:36.897Z,96803.67
2018-12-21T11:08:06.164Z,96793.91
2018-12-21T11:10:35.613Z,96794.80
2018-12-21T11:13:04.992Z,96778.63
2018-12-21T11:15:34.745Z,96769.72
2018-12-21T11:18:04.157Z,96773.53
2018-12-21T11:20:33.412Z,96755.61
2018-12-21T11:23:02.706Z,96750.44
2018-12-21T11:25:32.067Z,96750.80
2018-12-21T11:28:01.348Z,96735.45
2018-12-21T11:30:30.639Z,96734.97
2018-12-21T11:36:05.354Z,96716.13
2018-12-21T11:38:34.622Z,96705.97
2018-12-21T11:41:04.063Z,96700.46
2018-12-21T11:43:35.266Z,96682.95
2018-12-21T11:46:04.873Z,96668.81
2018-12-21T11:48:34.111Z,96650.91
2018-12-21T11:51:03.454Z,96645.79
2018-12-21T11:53:32.703Z,96634.28
2018-12-21T11:56:02.075Z,96625.86
2018-12-21T11:58:31.358Z,96607.97
2018-12-21T12:01:00.633Z,96629.86
2018-12-21T12:03:29.956Z,96621.33
2018-12-21T12:05:59.206Z,96609.00
2018-12-21T12:08:28.472Z,96623.23
2018-12-21T12:10:57.870Z,96613.82
2018-12-21T12:13:27.196Z,96612.59
2018-12-21T12:15:56.464Z,96602.37
2018-12-21T12:18:25.730Z,96597.34
2018-12-21T12:20:55.542Z,96583.42
2018-12-21T12:23:24.990Z,96585.17
2018-12-21T12:25:54.266Z,96583.48
2018-12-21T12:28:23.533Z,96577.95
2018-12-21T12:30:55.235Z,96576.69
2018-12-21T12:33:24.458Z,96577.62
2018-12-21T12:35:53.710Z,96577.63
2018-12-21T12:38:23.045Z,96566.13
2018-12-21T12:40:52.313Z,96558.09
2018-12-21T12:43:28.706Z,96563.70
2018-12-21T12:45:58.047Z,96567.59
2018-12-21T12:48:27.365Z,96553.92
2018-12-21T12:50:56.622Z,96551.03
2018-12-21T12:53:25.890Z,96553.53
2018-12-21T12:55:55.182Z,96542.95
2018-12-21T12:58:24.458Z,96551.97
2018-12-21T13:00:54.065Z,96551.11
2018-12-21T13:03:23.458Z,96558.45
2018-12-21T13:05:52.709Z,96544.35
2018-12-21T13:08:21.982Z,96545.23
2018-12-21T13:10:51.292Z,96540.27
2018-12-21T13:13:20.546Z,96544.23
2018-12-21T13:15:49.889Z,96537.44
2018-12-21T13:18:20.031Z,96540.16
2018-12-21T13:20:49.286Z,96531.90
2018-12-21T13:23:18.829Z,96527.34
2018-12-21T13:25:48.529Z,96524.42
2018-12-21T13:28:17.908Z,96521.03
2018-12-21T13:30:47.271Z,96512.47
2018-12-21T13:33:16.961Z,96524.11
2018-12-21T13:35:46.311Z,96519.57
2018-12-21T13:38:15.527Z,96518.75
2018-12-21T13:40:44.829Z,96512.80
2018-12-21T13:43:14.056Z,96521.81
2018-12-21T13:45:43.291Z,96521.04
2018-12-21T13:48:13.313Z,96509.61
2018-12-21T13:50:42.582Z,96512.67
2018-12-21T13:53:11.843Z,96512.30
2018-12-21T13:55:41.062Z,96510.73
2018-12-21T13:58:10.382Z,96515.84
2018-12-21T14:00:39.687Z,96509.13
2018-12-21T14:03:08.939Z,96528.84
2018-12-21T14:05:38.253Z,96522.10
2018-12-21T14:11:05.974Z,96511.51
2018-12-21T14:13:35.239Z,96516.17
2018-12-21T14:16:04.543Z,96520.50
2018-12-21T14:18:33.793Z,96521.86
2018-12-21T14:21:03.150Z,96527.03
2018-12-21T14:23:32.364Z,96528.69
2018-12-21T14:26:02.478Z,96535.95
2018-12-21T14:28:31.761Z,96534.22
2018-12-21T14:31:02.190Z,96528.22
2018-12-21T14:33:31.442Z,96535.03
2018-12-21T14:36:00.655Z,96537.28
2018-12-21T14:38:29.906Z,96532.06
2018-12-21T14:40:59.590Z,96532.49
2018-12-21T14:43:28.894Z,96546.63
2018-12-21T14:45:58.199Z,96539.25
2018-12-21T14:48:27.497Z,96532.93
2018-12-21T14:50:56.817Z,96543.66
2018-12-21T14:53:26.085Z,96535.95
2018-12-21T14:55:55.466Z,96533.80
2018-12-21T14:58:24.765Z,96569.78
2018-12-21T15:00:54.148Z,96537.70
2018-12-21T15:03:23.382Z,96551.81
2018-12-21T15:05:52.728Z,96539.41
2018-12-21T15:08:22.174Z,96545.81
2018-12-21T15:10:51.454Z,96556.48
2018-12-21T15:13:20.845Z,96542.80
2018-12-21T15:15:50.222Z,96539.36
2018-12-21T15:18:20.464Z,96553.52
2018-12-21T15:20:49.821Z,96554.86
2018-12-21T15:23:19.090Z,96535.16
2018-12-21T15:25:48.345Z,96547.15
2018-12-21T15:28:18.587Z,96546.28
2018-12-21T15:30:47.785Z,96546.41
2018-12-21T15:33:17.098Z,96545.84
2018-12-21T15:35:46.852Z,96557.84
2018-12-21T15:38:19.127Z,96545.84
2018-12-21T15:40:48.370Z,96551.41
2018-12-21T15:43:17.594Z,96569.36
2018-12-21T15:45:46.798Z,96556.98
2018-12-21T15:48:16.046Z,96557.85
2018-12-21T15:50:46.327Z,96551.02
2018-12-21T15:53:15.575Z,96543.72
2018-12-21T15:55:44.882Z,96561.28
2018-12-21T15:58:14.519Z,96548.41
2018-12-21T16:00:43.878Z,96546.28
2018-12-21T16:03:13.243Z,96559.19
2018-12-21T16:05:42.571Z,96553.20
2018-12-21T16:08:11.890Z,96562.23
2018-12-21T16:10:41.243Z,96556.17
2018-12-21T16:13:10.496Z,96569.84
2018-12-21T16:15:39.839Z,96578.36
2018-12-21T16:18:09.115Z,96575.77
2018-12-21T16:20:38.334Z,96575.25
2018-12-21T16:23:07.678Z,96571.52
2018-12-21T16:25:36.915Z,96579.65
2018-12-21T16:28:06.341Z,96594.67
2018-12-21T16:30:35.717Z,96580.53
2018-12-21T16:33:05.123Z,96583.14
2018-12-21T16:35:34.497Z,96588.28
2018-12-21T16:38:03.858Z,96575.00
2018-12-21T16:40:33.365Z,96575.12
2018-12-21T16:46:06.553Z,96575.16
2018-12-21T16:48:35.836Z,96570.78
2018-12-21T16:51:05.341Z,96563.46
2018-12-21T16:53:34.731Z,96579.72
2018-12-21T16:56:12.205Z,96563.94
2018-12-21T16:58:35.450Z,96572.88
2018-12-21T17:01:04.989Z,96559.20
2018-12-21T17:03:34.344Z,96578.13
2018-12-21T17:06:03.737Z,96566.59
2018-12-21T17:08:32.997Z,96564.02
2018-12-21T17:11:02.271Z,96588.09
2018-12-21T17:13:31.621Z,96571.77
2018-12-21T17:16:00.857Z,96579.05
2018-12-21T17:18:30.448Z,96558.91
2018-12-21T17:20:59.681Z,96562.34
2018-12-21T17:23:28.930Z,96553.38
2018-12-21T17:25:58.167Z,96552.53
2018-12-21T17:28:27.505Z,96551.27
2018-12-21T17:30:56.751Z,96556.84
2018-12-21T17:33:25.988Z,96570.17
2018-12-21T17:35:55.237Z,96558.59
2018-12-21T17:38:24.504Z,96552.16
2018-12-21T17:40:53.825Z,96565.04
2018-12-21T17:43:23.148Z,96564.63
2018-12-21T17:45:52.389Z,96572.78
2018-12-21T17:48:21.676Z,96582.23
2018-12-21T17:50:50.905Z,96577.50
2018-12-21T17:53:20.231Z,96575.39
2018-12-21T17:55:49.575Z,96578.42
2018-12-21T17:58:18.853Z,96588.69
2018-12-21T18:00:48.078Z,96584.02
2018-12-21T18:03:34.773Z,96596.43
2018-12-21T18:06:04.246Z,96593.47
2018-12-21T18:08:33.578Z,96593.03
2018-12-21T18:11:02.926Z,96601.19
2018-12-21T18:13:32.259Z,96606.31
2018-12-21T18:16:01.545Z,96613.22
2018-12-21T18:18:31.091Z,96608.95
2018-12-21T18:21:00.383Z,96627.83
2018-12-21T18:23:29.606Z,96605.50
2018-12-21T18:25:58.827Z,96604.66
2018-12-21T18:28:29.467Z,96633.00
2018-12-21T18:31:15.979Z,96624.84
2018-12-21T18:33:45.556Z,96617.09
2018-12-21T18:36:14.818Z,96612.38
2018-12-21T18:38:44.043Z,96624.82
2018-12-21T18:41:13.290Z,96617.95
2018-12-21T18:43:42.640Z,96623.52
2018-12-21T18:46:12.161Z,96629.14
2018-12-21T18:48:41.458Z,96626.13
2018-12-21T18:51:10.909Z,96619.68
2018-12-21T18:53:40.186Z,96622.73
2018-12-21T18:56:16.737Z,96604.66
2018-12-21T18:58:45.992Z,96609.80
2018-12-21T19:01:15.205Z,96606.81
2018-12-21T19:03:44.578Z,96610.69
2018-12-21T19:06:13.808Z,96602.95
2018-12-21T19:08:43.115Z,96598.23
2018-12-21T19:11:12.435Z,96603.80
2018-12-21T19:13:41.754Z,96587.49
2018-12-21T19:16:15.469Z,96592.20
2018-12-21T19:18:44.873Z,96594.80
2018-12-21T19:21:14.122Z,96594.34
2018-12-21T19:26:18.881Z,96605.08
2018-12-21T19:28:48.109Z,96603.34
2018-12-21T19:31:17.407Z,96608.55
2018-12-21T19:33:46.835Z,96605.52
2018-12-21T19:36:16.377Z,96597.78
2018-12-21T19:38:45.650Z,96610.68
2018-12-21T19:41:14.923Z,96601.65
2018-12-21T19:43:44.151Z,96603.79
2018-12-21T19:46:13.614Z,96602.95
2018-12-21T19:48:42.964Z,96601.63
2018-12-21T19:51:12.348Z,96590.91
2018-12-21T19:53:42.190Z,96593.49
2018-12-21T19:56:26.033Z,96599.52
2018-12-21T19:58:55.310Z,96591.77
2018-12-21T20:01:24.643Z,96596.08
2018-12-21T20:03:53.930Z,96599.06
2018-12-21T20:06:23.186Z,96587.48
2018-12-21T20:08:52.461Z,96591.36
2018-12-21T20:11:21.732Z,96599.94
2018-12-21T20:13:55.951Z,96588.78
2018-12-21T20:16:25.166Z,96588.80
2018-12-21T20:18:54.582Z,96600.36
2018-12-21T20:21:23.826Z,96595.20
2018-12-21T20:23:53.145Z,96598.19
2018-12-21T20:26:22.406Z,96604.20
2018-12-21T20:28:51.787Z,96618.36
2018-12-21T20:31:21.106Z,96620.98
2018-12-21T20:33:50.353Z,96628.27
2018-12-21T20:36:19.782Z,96626.95
2018-12-21T20:38:49.753Z,96635.12
2018-12-21T20:41:19.062Z,96641.11
2018-12-21T20:43:48.289Z,96632.11
2018-12-21T20:46:17.603Z,96646.69
2018-12-21T20:48:46.984Z,96646.69
2018-12-21T20:51:16.258Z,96641.55
2018-12-21T20:53:45.598Z,96637.26
2018-12-21T20:56:14.822Z,96645.85
2018-12-21T21:01:48.745Z,96650.53
2018-12-21T21:04:18.015Z,96660.40
2018-12-21T21:06:47.286Z,96665.58
2018-12-21T21:09:16.790Z,96663.41
2018-12-21T21:11:48.203Z,96670.25
2018-12-21T21:14:19.645Z,96674.98
2018-12-21T21:16:48.943Z,96681.41
2018-12-21T21:19:18.177Z,96684.41
2018-12-21T21:21:48.382Z,96688.28
2018-12-21T21:24:17.615Z,96687.83
2018-12-21T21:26:47.629Z,96688.27
2018-12-21T21:29:16.944Z,96691.27
2018-12-21T21:31:50.592Z,96695.13
2018-12-21T21:34:19.826Z,96700.70
2018-12-21T21:36:49.126Z,96697.28
2018-12-21T21:39:18.366Z,96701.56
2018-12-21T21:41:47.730Z,96694.29
2018-12-21T21:44:18.794Z,96684.41
2018-12-21T21:46:48.178Z,96687.84
2018-12-21T21:49:19.372Z,96687.83
2018-12-21T21:51:48.803Z,96684.41
2018-12-21T21:54:18.214Z,96685.71
2018-12-21T21:56:47.561Z,96692.59
2018-12-21T21:59:16.758Z,96687.91
2018-12-21T22:01:46.001Z,96685.32
2018-12-21T22:04:15.775Z,96696.48
2018-12-21T22:06:45.067Z,96690.48
2018-12-21T22:09:14.252Z,96681.88
2018-12-21T22:11:43.530Z,96683.58
2018-12-21T22:14:12.842Z,96680.59
2018-12-21T22:16:42.134Z,96689.21
2018-12-21T22:19:12.301Z,96685.36
2018-12-21T22:21:41.569Z,96686.66
2018-12-21T22:24:10.834Z,96691.36
2018-12-21T22:26:40.052Z,96698.70
2018-12-21T22:29:09.282Z,96692.22
2018-12-21T22:34:44.739Z,96696.55
2018-12-21T22:37:14.878Z,96698.67
2018-12-21T22:39:44.184Z,96699.97
2018-12-21T22:42:13.418Z,96691.36
2018-12-21T22:44:42.845Z,96687.54
2018-12-21T22:47:12.141Z,96678.95
2018-12-21T22:49:41.567Z,96685.41
2018-12-21T22:52:10.842Z,96681.55
2018-12-21T22:54:40.065Z,96672.95
2018-12-21T22:57:09.366Z,96666.93
2018-12-21T22:59:39.010Z,96669.08
2018-12-21T23:02:08.331Z,96663.09
2018-12-21T23:04:37.660Z,96670.41
2018-12-21T23:07:29.969Z,96662.67
2018-12-21T23:09:59.614Z,96657.50
2018-12-21T23:12:29.054Z,96676.79
2018-12-21T23:14:58.306Z,96661.77
2018-12-21T23:17:27.578Z,96660.93
2018-12-21T23:19:56.815Z,96674.27
2018-12-21T23:22:26.147Z,96660.92
2018-12-21T23:24:55.434Z,96661.81
2018-12-21T23:27:24.656Z,96660.95
2018-12-21T23:29:53.869Z,96675.11
2018-12-21T23:32:23.121Z,96678.14
2018-12-21T23:34:52.343Z,96672.13
2018-12-21T23:37:21.653Z,96673.39
2018-12-21T23:39:50.876Z,96663.97
2018-12-21T23:42:20.121Z,96661.38
2018-12-21T23:44:50.530Z,96654.09
2018-12-21T23:47:19.818Z,96667.83
2018-12-21T23:49:49.141Z,96663.91
2018-12-21T23:52:18.717Z,96661.30
2018-12-21T23:54:48.061Z,96657.88
2018-12-21T23:57:17.312Z,96654.87
2018-12-21T23:59:46.581Z,96657.89
